createdAt,value
2022-08-12T00:00:49.685Z,2.00
2022-08-12T00:03:37.294Z,1.70
2022-08-12T00:06:26.985Z,2.10
2022-08-12T00:09:14.854Z,1.80
2022-08-12T00:12:02.460Z,1.90
2022-08-12T00:14:50.061Z,2.00
2022-08-12T00:17:40.606Z,2.00
2022-08-12T00:20:30.002Z,2.00
2022-08-12T00:23:18.174Z,2.00
2022-08-12T00:26:22.320Z,1.90
2022-08-12T00:29:13.448Z,2.00
2022-08-12T00:32:01.686Z,2.30
2022-08-12T00:34:53.947Z,2.00
2022-08-12T00:37:44.732Z,2.60
2022-08-12T00:40:34.620Z,2.30
2022-08-12T00:43:08.530Z,2.40
2022-08-12T00:45:52.678Z,2.50
2022-08-12T00:48:23.013Z,3.00
2022-08-12T00:50:55.363Z,3.00
2022-08-12T00:53:26.463Z,2.70
2022-08-12T00:55:58.382Z,2.50
2022-08-12T00:58:30.273Z,2.50
2022-08-12T01:01:03.788Z,2.30
2022-08-12T01:04:02.640Z,2.30
2022-08-12T01:06:53.942Z,2.60
2022-08-12T01:09:43.270Z,2.70
2022-08-12T01:12:15.570Z,2.50
2022-08-12T01:14:46.792Z,2.60
2022-08-12T01:17:16.824Z,2.50
2022-08-12T01:19:51.518Z,2.40
2022-08-12T01:22:31.288Z,2.90
2022-08-12T01:25:11.670Z,2.40
2022-08-12T01:27:43.097Z,2.90
2022-08-12T01:30:15.810Z,2.70
2022-08-12T01:32:50.016Z,2.80
2022-08-12T01:35:21.285Z,2.60
2022-08-12T01:37:58.398Z,2.70
2022-08-12T01:40:37.212Z,3.10
2022-08-12T01:43:10.072Z,2.80
2022-08-12T01:45:47.624Z,2.90
2022-08-12T01:51:06.208Z,3.20
2022-08-12T01:53:51.122Z,2.60
2022-08-12T01:56:24.679Z,2.60
2022-08-12T01:59:16.149Z,3.00
2022-08-12T02:01:50.556Z,2.90
2022-08-12T02:04:49.910Z,2.80
2022-08-12T02:07:49.922Z,2.60
2022-08-12T02:10:52.032Z,3.00
2022-08-12T02:13:49.064Z,3.30
2022-08-12T02:16:37.687Z,3.10
2022-08-12T02:19:22.994Z,2.80
2022-08-12T02:22:09.995Z,2.80
2022-08-12T02:24:42.197Z,2.80
2022-08-12T02:27:14.794Z,3.30
2022-08-12T02:29:44.719Z,2.80
2022-08-12T02:32:16.162Z,3.40
2022-08-12T02:34:46.138Z,3.40
2022-08-12T02:37:18.271Z,3.70
2022-08-12T02:39:50.672Z,3.10
2022-08-12T02:42:23.140Z,3.20
2022-08-12T02:44:55.723Z,3.20
2022-08-12T02:47:58.340Z,2.80
2022-08-12T02:50:22.976Z,3.30
2022-08-12T02:52:53.080Z,3.10
2022-08-12T02:55:34.013Z,3.60
2022-08-12T02:58:12.473Z,2.90
2022-08-12T03:00:45.095Z,3.30
2022-08-12T03:03:16.989Z,3.30
2022-08-12T03:05:50.449Z,3.50
2022-08-12T03:08:32.800Z,2.90
2022-08-12T03:11:12.096Z,3.10
2022-08-12T03:13:51.394Z,3.80
2022-08-12T03:16:22.974Z,3.10
2022-08-12T03:18:54.059Z,3.30
2022-08-12T03:22:05.670Z,3.10
2022-08-12T03:24:24.368Z,3.40
2022-08-12T03:27:00.269Z,3.50
2022-08-12T03:29:33.431Z,3.30
2022-08-12T03:32:35.787Z,3.90
2022-08-12T03:35:40.993Z,3.70
2022-08-12T03:38:15.921Z,3.80
2022-08-12T03:41:15.915Z,3.40
2022-08-12T03:44:11.069Z,3.70
2022-08-12T03:47:03.182Z,3.30
2022-08-12T03:49:52.218Z,3.80
2022-08-12T03:52:40.109Z,3.60
2022-08-12T03:55:28.060Z,3.10
2022-08-12T04:00:45.757Z,3.20
2022-08-12T04:03:30.685Z,3.80
2022-08-12T04:06:00.277Z,3.30
2022-08-12T04:08:31.158Z,3.10
2022-08-12T04:11:19.198Z,3.40
2022-08-12T04:13:49.861Z,3.60
2022-08-12T04:16:25.547Z,3.20
2022-08-12T04:18:58.533Z,3.40
2022-08-12T04:21:28.424Z,3.40
2022-08-12T04:23:58.409Z,3.90
2022-08-12T04:26:31.625Z,3.50
2022-08-12T04:29:09.954Z,3.00
2022-08-12T04:31:45.053Z,4.00
2022-08-12T04:34:22.396Z,2.70
2022-08-12T04:37:19.499Z,2.50
2022-08-12T04:40:03.038Z,2.80
2022-08-12T04:43:59.646Z,3.00
2022-08-12T04:46:51.314Z,2.70
2022-08-12T04:49:24.856Z,3.30
2022-08-12T04:51:59.099Z,3.00
2022-08-12T04:54:31.374Z,3.70
2022-08-12T04:57:20.096Z,4.10
2022-08-12T04:59:53.441Z,3.30
2022-08-12T05:02:26.749Z,2.90
2022-08-12T05:05:00.800Z,3.80
2022-08-12T05:07:31.071Z,4.10
2022-08-12T05:10:02.239Z,4.60
2022-08-12T05:12:37.179Z,3.80
2022-08-12T05:15:18.896Z,3.30
2022-08-12T05:17:59.741Z,3.30
2022-08-12T05:20:32.249Z,3.90
2022-08-12T05:23:13.312Z,4.20
2022-08-12T05:25:45.347Z,3.10
2022-08-12T05:28:18.010Z,3.70
2022-08-12T05:30:48.575Z,4.40
2022-08-12T05:33:31.237Z,4.60
2022-08-12T05:36:01.343Z,4.80
2022-08-12T05:38:50.879Z,4.00
2022-08-12T05:41:21.553Z,4.60
2022-08-12T05:44:04.714Z,3.50
2022-08-12T05:46:36.427Z,3.70
2022-08-12T05:49:09.656Z,3.70
2022-08-12T05:51:42.103Z,3.40
2022-08-12T05:54:13.840Z,3.00
2022-08-12T05:56:43.854Z,3.30
2022-08-12T05:59:13.436Z,3.20
2022-08-12T06:02:12.242Z,4.40
2022-08-12T06:04:32.670Z,3.70
2022-08-12T06:08:00.793Z,3.40
2022-08-12T06:09:56.683Z,3.10
2022-08-12T06:12:26.064Z,3.10
2022-08-12T06:14:55.130Z,3.10
2022-08-12T06:17:24.720Z,3.30
2022-08-12T06:20:27.434Z,3.00
2022-08-12T06:22:44.242Z,3.00
2022-08-12T06:25:19.199Z,3.10
2022-08-12T06:28:07.300Z,3.00
2022-08-12T06:30:39.487Z,3.00
2022-08-12T06:33:23.004Z,3.50
2022-08-12T06:35:57.821Z,3.50
2022-08-12T06:38:30.892Z,2.80
2022-08-12T06:41:19.401Z,3.30
2022-08-12T06:44:04.504Z,2.90
2022-08-12T06:49:09.849Z,2.80
2022-08-12T06:51:38.971Z,3.20
2022-08-12T06:54:09.969Z,2.90
2022-08-12T06:57:03.088Z,2.90
2022-08-12T06:59:29.934Z,2.70
2022-08-12T07:01:59.372Z,2.30
2022-08-12T07:04:37.420Z,2.70
2022-08-12T07:07:09.145Z,2.80
2022-08-12T07:10:04.540Z,2.30
2022-08-12T07:12:33.379Z,2.40
2022-08-12T07:15:02.769Z,2.60
2022-08-12T07:17:36.998Z,2.60
2022-08-12T07:20:20.101Z,2.60
2022-08-12T07:22:50.721Z,2.50
2022-08-12T07:25:40.467Z,2.90
2022-08-12T07:28:16.414Z,2.80
2022-08-12T07:30:48.655Z,2.70
2022-08-12T07:33:22.376Z,2.60
2022-08-12T07:35:53.535Z,2.70
2022-08-12T07:38:30.769Z,2.70
2022-08-12T07:41:05.946Z,2.80
2022-08-12T07:43:39.110Z,2.70
2022-08-12T07:46:11.314Z,2.80
2022-08-12T07:48:43.137Z,2.50
2022-08-12T07:51:25.118Z,2.60
2022-08-12T07:54:00.792Z,2.80
2022-08-12T07:56:32.508Z,2.90
2022-08-12T07:59:02.710Z,2.60
2022-08-12T08:01:33.131Z,3.60
2022-08-12T08:04:26.113Z,3.20
2022-08-12T08:06:57.326Z,2.70
2022-08-12T08:09:26.944Z,2.80
2022-08-12T08:12:19.053Z,2.50
2022-08-12T08:14:50.543Z,2.40
2022-08-12T08:17:21.817Z,2.30
2022-08-12T08:20:03.842Z,2.50
2022-08-12T08:22:41.921Z,2.20
2022-08-12T08:25:20.449Z,2.50
2022-08-12T08:28:04.140Z,2.70
2022-08-12T08:30:34.367Z,2.20
2022-08-12T08:33:15.523Z,2.70
2022-08-12T08:35:54.472Z,2.50
2022-08-12T08:38:31.932Z,2.30
2022-08-12T08:42:15.682Z,2.40
2022-08-12T08:44:11.579Z,2.30
2022-08-12T08:46:44.129Z,2.70
2022-08-12T08:49:26.781Z,2.70
2022-08-12T08:51:56.533Z,2.50
2022-08-12T08:54:25.800Z,2.70
2022-08-12T08:56:54.999Z,2.80
2022-08-12T08:59:24.270Z,2.70
2022-08-12T09:01:54.134Z,2.90
2022-08-12T09:05:08.301Z,2.40
2022-08-12T09:07:17.870Z,2.40
2022-08-12T09:10:09.236Z,2.30
2022-08-12T09:13:22.895Z,2.60
2022-08-12T09:15:56.159Z,2.50
2022-08-12T09:18:33.345Z,3.10
2022-08-12T09:21:03.358Z,2.60
2022-08-12T09:24:00.174Z,2.90
2022-08-12T09:26:28.397Z,2.80
2022-08-12T09:29:00.968Z,2.60
2022-08-12T09:32:04.012Z,2.60
2022-08-12T09:34:25.860Z,2.60
2022-08-12T09:36:59.930Z,2.60
2022-08-12T09:40:05.412Z,2.50
2022-08-12T09:42:51.493Z,2.30
2022-08-12T09:46:06.360Z,2.50
2022-08-12T09:48:20.375Z,2.50
2022-08-12T09:50:55.649Z,2.40
2022-08-12T09:53:36.422Z,2.40
2022-08-12T09:56:57.945Z,2.40
2022-08-12T09:59:02.819Z,2.40
2022-08-12T10:01:34.739Z,2.30
2022-08-12T10:04:20.917Z,2.60
2022-08-12T10:06:55.317Z,2.30
2022-08-12T10:09:28.613Z,2.20
2022-08-12T10:12:33.889Z,2.00
2022-08-12T10:15:03.391Z,2.40
2022-08-12T10:17:32.903Z,2.40
2022-08-12T10:20:02.875Z,2.40
2022-08-12T10:22:36.858Z,2.20
2022-08-12T10:25:51.659Z,2.30
2022-08-12T10:29:02.416Z,2.50
2022-08-12T10:32:20.218Z,2.40
2022-08-12T10:34:26.594Z,2.50
2022-08-12T10:36:58.645Z,2.30
2022-08-12T10:40:00.140Z,2.10
2022-08-12T10:42:41.121Z,2.40
2022-08-12T10:45:18.342Z,2.70
2022-08-12T10:48:15.940Z,2.30
2022-08-12T10:51:01.778Z,2.70
2022-08-12T10:53:45.703Z,2.40
2022-08-12T10:56:17.883Z,2.30
2022-08-12T10:58:48.570Z,2.40
2022-08-12T11:01:50.144Z,2.60
2022-08-12T11:04:24.685Z,2.60
2022-08-12T11:07:08.001Z,2.50
2022-08-12T11:09:59.536Z,2.40
2022-08-12T11:12:57.083Z,2.60
2022-08-12T11:15:33.135Z,2.50
2022-08-12T11:18:18.393Z,2.80
2022-08-12T11:20:49.089Z,2.40
2022-08-12T11:23:25.387Z,2.60
2022-08-12T11:26:08.197Z,2.70
2022-08-12T11:28:38.763Z,2.30
2022-08-12T11:31:14.170Z,2.30
2022-08-12T11:34:06.677Z,2.50
2022-08-12T11:36:39.246Z,2.60
2022-08-12T11:39:09.980Z,2.40
2022-08-12T11:41:42.999Z,2.60
2022-08-12T11:44:35.529Z,2.40
2022-08-12T11:47:02.039Z,2.60
2022-08-12T11:49:32.757Z,2.80
2022-08-12T11:52:04.170Z,2.80
2022-08-12T11:54:51.217Z,2.60
2022-08-12T11:58:19.850Z,2.60
2022-08-12T12:03:02.719Z,2.30
2022-08-12T12:05:41.512Z,2.40
2022-08-12T12:10:59.500Z,2.40
2022-08-12T12:14:06.554Z,2.50
2022-08-12T12:16:19.820Z,2.80
2022-08-12T12:18:49.404Z,2.50
2022-08-12T12:21:18.336Z,2.70
2022-08-12T12:24:08.700Z,2.60
2022-08-12T12:26:38.440Z,2.30
2022-08-12T12:30:13.432Z,2.60
2022-08-12T12:32:08.949Z,2.60
2022-08-12T12:35:12.998Z,2.40
2022-08-12T12:37:58.963Z,2.80
2022-08-12T12:40:20.008Z,2.30
2022-08-12T12:42:57.820Z,2.60
2022-08-12T12:45:33.404Z,2.40
2022-08-12T12:48:05.177Z,2.60
2022-08-12T12:50:45.673Z,2.30
2022-08-12T12:54:07.070Z,2.60
2022-08-12T12:56:16.329Z,2.80
2022-08-12T12:58:46.566Z,2.60
2022-08-12T13:01:26.570Z,3.00
2022-08-12T13:04:02.473Z,2.40
2022-08-12T13:06:32.415Z,2.40
2022-08-12T13:09:04.352Z,2.40
2022-08-12T13:11:44.270Z,2.50
2022-08-12T13:14:28.108Z,2.40
2022-08-12T13:17:00.982Z,2.20
2022-08-12T13:19:43.455Z,2.40
2022-08-12T13:22:18.010Z,2.80
2022-08-12T13:24:52.230Z,2.10
2022-08-12T13:27:34.966Z,2.30
2022-08-12T13:30:12.178Z,2.70
2022-08-12T13:32:56.836Z,2.40
2022-08-12T13:36:02.652Z,2.50
2022-08-12T13:38:26.522Z,2.70
2022-08-12T13:41:11.236Z,2.80
2022-08-12T13:43:41.920Z,2.50
2022-08-12T13:46:14.848Z,2.50
2022-08-12T13:48:45.122Z,2.00
2022-08-12T13:51:24.305Z,2.20
2022-08-12T13:53:57.605Z,1.90
2022-08-12T13:56:34.719Z,1.80
2022-08-12T13:59:08.627Z,2.40
2022-08-12T14:01:41.058Z,2.10
2022-08-12T14:04:11.368Z,2.10
2022-08-12T14:06:41.383Z,2.30
2022-08-12T14:09:17.450Z,1.90
2022-08-12T14:11:58.455Z,2.10
2022-08-12T14:14:31.441Z,2.30
2022-08-12T14:17:09.929Z,2.10
2022-08-12T14:20:00.886Z,2.20
2022-08-12T14:22:31.708Z,2.40
2022-08-12T14:25:01.482Z,2.30
2022-08-12T14:28:04.146Z,2.20
2022-08-12T14:30:24.148Z,2.10
2022-08-12T14:33:02.805Z,2.30
2022-08-12T14:35:34.103Z,2.10
2022-08-12T14:38:25.935Z,2.10
2022-08-12T14:40:57.857Z,2.80
2022-08-12T14:43:31.450Z,2.50
2022-08-12T14:46:19.361Z,2.30
2022-08-12T14:48:50.740Z,2.70
2022-08-12T14:52:55.965Z,2.40
2022-08-12T14:57:23.502Z,2.30
2022-08-12T15:00:11.746Z,2.20
2022-08-12T15:02:41.106Z,2.60
2022-08-12T15:05:10.725Z,2.40
2022-08-12T15:08:05.079Z,2.50
2022-08-12T15:10:39.214Z,2.30
2022-08-12T15:13:12.312Z,2.40
2022-08-12T15:18:21.091Z,2.40
2022-08-12T15:20:52.339Z,2.20
2022-08-12T15:23:29.118Z,2.30
2022-08-12T15:26:06.108Z,2.40
2022-08-12T15:28:37.082Z,2.70
2022-08-12T15:31:21.760Z,2.50
2022-08-12T15:33:58.125Z,2.50
2022-08-12T15:36:54.016Z,2.40
2022-08-12T15:39:17.809Z,2.60
2022-08-12T15:41:50.424Z,2.50
2022-08-12T15:44:42.317Z,2.70
2022-08-12T15:47:10.998Z,2.50
2022-08-12T15:49:55.072Z,2.60
2022-08-12T15:52:30.874Z,2.80
2022-08-12T15:55:06.631Z,2.70
2022-08-12T15:57:46.376Z,2.50
2022-08-12T16:00:32.919Z,2.70
2022-08-12T16:03:08.612Z,2.60
2022-08-12T16:06:17.080Z,3.70
2022-08-12T16:08:41.832Z,3.10
2022-08-12T16:11:15.696Z,4.80
2022-08-12T16:13:48.691Z,5.60
2022-08-12T16:16:24.080Z,5.90
2022-08-12T16:19:00.823Z,6.70
2022-08-12T16:21:51.991Z,7.70
2022-08-12T16:24:24.412Z,7.50
2022-08-12T16:26:56.150Z,8.40
2022-08-12T16:29:52.687Z,8.50
2022-08-12T16:32:22.867Z,8.90
2022-08-12T16:35:05.277Z,8.30
2022-08-12T16:38:25.760Z,9.20
2022-08-12T16:40:28.350Z,8.80
2022-08-12T16:43:04.793Z,9.00
2022-08-12T16:46:23.211Z,9.00
2022-08-12T16:48:37.943Z,8.80
2022-08-12T16:51:10.089Z,8.70
2022-08-12T16:53:44.230Z,8.70
2022-08-12T16:56:18.056Z,9.40
2022-08-12T16:58:47.457Z,8.40
2022-08-12T17:01:19.738Z,9.30
2022-08-12T17:04:08.699Z,8.90
2022-08-12T17:06:42.780Z,8.60
2022-08-12T17:09:16.769Z,8.00
2022-08-12T17:11:50.297Z,8.10
2022-08-12T17:14:23.557Z,8.20
2022-08-12T17:16:54.856Z,8.40
2022-08-12T17:20:30.506Z,8.00
2022-08-12T17:22:17.480Z,8.30
2022-08-12T17:24:55.955Z,8.20
2022-08-12T17:27:26.941Z,8.50
2022-08-12T17:30:04.660Z,8.20
2022-08-12T17:32:37.415Z,9.10
2022-08-12T17:35:37.479Z,8.60
2022-08-12T17:38:13.577Z,7.80
2022-08-12T17:40:46.256Z,7.90
2022-08-12T17:43:56.047Z,8.40
2022-08-12T17:46:12.922Z,8.30
2022-08-12T17:51:35.187Z,8.00
2022-08-12T17:54:21.124Z,8.10
2022-08-12T17:56:53.362Z,7.90
2022-08-12T17:59:47.845Z,8.10
2022-08-12T18:02:30.095Z,7.80
2022-08-12T18:05:05.401Z,8.40
2022-08-12T18:07:41.081Z,8.10
2022-08-12T18:10:12.138Z,8.30
2022-08-12T18:12:53.504Z,9.10
2022-08-12T18:15:26.877Z,8.80
2022-08-12T18:18:17.322Z,8.80
2022-08-12T18:20:49.953Z,8.10
2022-08-12T18:23:27.968Z,8.30
2022-08-12T18:26:18.739Z,8.60
2022-08-12T18:28:48.650Z,8.80
2022-08-12T18:31:22.811Z,9.30
2022-08-12T18:33:52.850Z,9.00
2022-08-12T18:36:26.375Z,8.60
2022-08-12T18:38:59.503Z,9.00
2022-08-12T18:41:36.018Z,9.10
2022-08-12T18:44:12.322Z,8.60
2022-08-12T18:46:55.163Z,9.10
2022-08-12T18:49:44.544Z,9.60
2022-08-12T18:52:30.542Z,9.30
2022-08-12T18:55:16.052Z,9.00
2022-08-12T18:58:06.859Z,10.00
2022-08-12T19:01:01.118Z,9.20
2022-08-12T19:03:39.478Z,9.70
2022-08-12T19:06:16.194Z,9.60
2022-08-12T19:08:59.600Z,9.50
2022-08-12T19:11:49.170Z,9.90
2022-08-12T19:14:39.030Z,10.10
2022-08-12T19:17:11.545Z,9.90
2022-08-12T19:20:11.314Z,9.70
2022-08-12T19:23:21.335Z,10.00
2022-08-12T19:26:12.544Z,9.50
2022-08-12T19:28:58.641Z,9.60
2022-08-12T19:38:46.682Z,10.50
2022-08-12T19:41:42.849Z,10.40
2022-08-12T19:45:04.554Z,10.30
2022-08-12T19:47:39.153Z,10.60
2022-08-12T19:51:09.084Z,10.60
2022-08-12T19:54:16.018Z,10.40
2022-08-12T19:57:42.616Z,10.50
2022-08-12T20:00:52.079Z,9.70
2022-08-12T20:03:39.592Z,10.60
2022-08-12T20:06:21.770Z,10.70
2022-08-12T20:09:28.190Z,10.10
2022-08-12T20:12:19.491Z,10.20
2022-08-12T20:15:10.580Z,10.10
2022-08-12T20:17:51.153Z,11.20
2022-08-12T20:20:28.284Z,10.90
2022-08-12T20:22:58.204Z,11.30
2022-08-12T20:25:28.198Z,10.80
2022-08-12T20:28:21.086Z,10.60
2022-08-12T20:30:59.285Z,10.20
2022-08-12T20:33:32.691Z,10.60
2022-08-12T20:36:42.812Z,10.40
2022-08-12T20:39:34.129Z,10.60
2022-08-12T20:42:11.581Z,11.00
2022-08-12T20:44:44.184Z,10.80
2022-08-12T20:47:19.580Z,10.40
2022-08-12T20:49:54.977Z,10.20
2022-08-12T20:52:30.632Z,10.40
2022-08-12T20:55:05.161Z,10.30
2022-08-12T20:58:02.531Z,10.70
2022-08-12T21:00:34.402Z,10.10
2022-08-12T21:03:18.297Z,10.30
2022-08-12T21:06:12.064Z,9.10
2022-08-12T21:08:45.108Z,6.40
2022-08-12T21:11:20.261Z,5.80
2022-08-12T21:13:50.791Z,7.30
2022-08-12T21:16:35.377Z,8.50
2022-08-12T21:19:08.145Z,8.80
2022-08-12T21:21:50.213Z,8.80
2022-08-12T21:24:32.475Z,8.40
2022-08-12T21:27:07.391Z,8.70
2022-08-12T21:29:50.041Z,8.20
2022-08-12T21:35:28.391Z,9.10
2022-08-12T21:38:13.532Z,8.60
2022-08-12T21:40:55.222Z,9.50
2022-08-12T21:43:44.455Z,8.90
2022-08-12T21:46:35.389Z,9.60
2022-08-12T21:49:53.631Z,9.50
2022-08-12T21:52:14.637Z,9.10
2022-08-12T21:54:45.331Z,9.00
2022-08-12T21:57:15.867Z,10.20
2022-08-12T21:59:48.466Z,9.50
2022-08-12T22:02:41.641Z,9.40
2022-08-12T22:08:52.519Z,9.20
2022-08-12T22:11:42.351Z,8.70
2022-08-12T22:14:21.751Z,9.10
2022-08-12T22:16:56.940Z,9.10
2022-08-12T22:19:35.011Z,9.10
2022-08-12T22:22:12.406Z,8.90
2022-08-12T22:24:46.386Z,8.50
2022-08-12T22:27:51.316Z,8.80
2022-08-12T22:30:39.590Z,9.00
2022-08-12T22:33:15.805Z,9.50
2022-08-12T22:35:59.665Z,9.00
2022-08-12T22:39:50.439Z,10.20
2022-08-12T22:42:41.838Z,9.20
2022-08-12T22:45:30.598Z,9.40
2022-08-12T22:48:07.121Z,8.60
2022-08-12T22:50:37.626Z,9.00
2022-08-12T22:53:19.313Z,9.00
2022-08-12T22:55:59.859Z,8.50
2022-08-12T22:58:42.532Z,9.30
2022-08-12T23:01:21.533Z,9.50
2022-08-12T23:04:15.598Z,8.40
2022-08-12T23:07:07.105Z,9.50
2022-08-12T23:09:48.049Z,9.20
2022-08-12T23:12:33.257Z,8.70
2022-08-12T23:15:06.083Z,8.80
2022-08-12T23:17:40.868Z,9.20
2022-08-12T23:20:26.990Z,9.20
2022-08-12T23:23:08.818Z,7.70
2022-08-12T23:26:03.691Z,8.80
2022-08-12T23:28:55.866Z,8.60
2022-08-12T23:31:30.434Z,8.70
2022-08-12T23:34:20.441Z,9.30
2022-08-12T23:37:13.340Z,8.20
2022-08-12T23:40:15.796Z,8.60
2022-08-12T23:42:44.355Z,8.70
2022-08-12T23:45:20.254Z,9.10
2022-08-12T23:48:01.169Z,9.40
2022-08-12T23:50:33.758Z,9.00
2022-08-12T23:53:06.450Z,8.70
2022-08-12T23:55:49.404Z,9.10
2022-08-12T23:58:28.430Z,8.90
